createdAt,value
2023-05-23T00:00:37.072Z,14.96
2023-05-23T00:03:05.045Z,14.95
2023-05-23T00:05:32.863Z,14.95
2023-05-23T00:08:01.617Z,14.94
2023-05-23T00:10:29.690Z,14.92
2023-05-23T00:12:58.359Z,14.90
2023-05-23T00:15:26.078Z,14.86
2023-05-23T00:17:53.771Z,14.84
2023-05-23T00:20:21.452Z,14.84
2023-05-23T00:22:49.620Z,14.84
2023-05-23T00:25:17.297Z,14.85
2023-05-23T00:27:44.940Z,14.84
2023-05-23T00:30:12.670Z,14.84
2023-05-23T00:32:40.486Z,14.82
2023-05-23T00:35:08.693Z,14.83
2023-05-23T00:37:36.347Z,14.84
2023-05-23T00:40:04.326Z,14.85
2023-05-23T00:42:33.283Z,14.83
2023-05-23T00:45:00.891Z,14.83
2023-05-23T00:47:29.679Z,14.84
2023-05-23T00:49:57.541Z,14.85
2023-05-23T00:52:25.751Z,14.83
2023-05-23T00:54:53.485Z,14.84
2023-05-23T00:57:21.099Z,14.82
2023-05-23T00:59:48.728Z,14.83
2023-05-23T01:02:16.417Z,14.83
2023-05-23T01:04:44.643Z,14.83
2023-05-23T01:07:12.764Z,14.82
2023-05-23T01:09:41.106Z,14.83
2023-05-23T01:12:26.051Z,14.83
2023-05-23T01:15:02.895Z,14.84
2023-05-23T01:17:42.402Z,14.85
2023-05-23T01:20:27.178Z,14.86
2023-05-23T01:23:00.664Z,14.89
2023-05-23T01:25:44.051Z,14.88
2023-05-23T01:28:20.348Z,14.87
2023-05-23T01:30:52.754Z,14.88
2023-05-23T01:33:21.036Z,14.91
2023-05-23T01:35:49.783Z,14.91
2023-05-23T01:38:17.511Z,14.90
2023-05-23T01:40:45.691Z,14.89
2023-05-23T01:43:13.875Z,14.90
2023-05-23T01:45:42.408Z,14.93
2023-05-23T01:48:12.560Z,14.94
2023-05-23T01:50:41.159Z,14.95
2023-05-23T01:53:10.402Z,14.98
2023-05-23T01:55:39.497Z,14.99
2023-05-23T01:58:09.232Z,15.00
2023-05-23T02:00:36.836Z,15.00
2023-05-23T02:03:04.609Z,15.01
2023-05-23T02:05:33.354Z,15.01
2023-05-23T02:08:02.541Z,15.00
2023-05-23T02:10:30.242Z,15.02
2023-05-23T02:12:57.860Z,15.02
2023-05-23T02:15:25.572Z,15.02
2023-05-23T02:17:53.396Z,15.04
2023-05-23T02:20:21.706Z,15.05
2023-05-23T02:22:51.025Z,15.07
2023-05-23T02:25:21.188Z,15.08
2023-05-23T02:27:48.763Z,15.09
2023-05-23T02:30:17.080Z,15.09
2023-05-23T02:32:45.099Z,15.12
2023-05-23T02:35:13.707Z,15.14
2023-05-23T02:37:41.472Z,15.15
2023-05-23T02:40:09.632Z,15.17
2023-05-23T02:42:37.432Z,15.18
2023-05-23T02:45:05.518Z,15.21
2023-05-23T02:47:33.258Z,15.24
2023-05-23T02:50:01.147Z,15.27
2023-05-23T02:52:29.368Z,15.31
2023-05-23T02:54:57.016Z,15.34
2023-05-23T02:57:24.905Z,15.38
2023-05-23T02:59:53.993Z,15.43
2023-05-23T03:02:21.957Z,15.49
2023-05-23T03:04:51.215Z,15.55
2023-05-23T03:07:27.712Z,15.60
2023-05-23T03:10:11.812Z,15.66
2023-05-23T03:12:39.488Z,15.70
2023-05-23T03:15:08.819Z,15.79
2023-05-23T03:17:37.332Z,15.89
2023-05-23T03:20:06.195Z,15.95
2023-05-23T03:22:33.819Z,16.02
2023-05-23T03:25:04.651Z,16.09
2023-05-23T03:27:34.139Z,16.14
2023-05-23T03:30:02.974Z,16.20
2023-05-23T03:32:30.964Z,16.28
2023-05-23T03:34:58.748Z,16.38
2023-05-23T03:37:27.055Z,16.45
2023-05-23T03:39:54.927Z,16.51
2023-05-23T03:42:26.783Z,16.50
2023-05-23T03:44:55.054Z,16.51
2023-05-23T03:47:26.700Z,16.54
2023-05-23T03:49:55.119Z,16.60
2023-05-23T03:52:23.485Z,16.68
2023-05-23T03:54:51.558Z,16.78
2023-05-23T03:57:19.271Z,16.97
2023-05-23T03:59:48.729Z,17.21
2023-05-23T04:02:17.190Z,17.38
2023-05-23T04:04:49.597Z,17.55
2023-05-23T04:07:17.355Z,17.83
2023-05-23T04:09:45.498Z,18.05
2023-05-23T04:12:14.635Z,18.33
2023-05-23T04:14:43.518Z,18.65
2023-05-23T04:17:12.227Z,18.93
2023-05-23T04:19:40.211Z,19.16
2023-05-23T04:22:08.211Z,19.28
2023-05-23T04:24:38.112Z,19.31
2023-05-23T04:27:06.244Z,19.32
2023-05-23T04:29:36.293Z,19.30
2023-05-23T04:32:03.937Z,19.25
2023-05-23T04:34:34.126Z,19.21
2023-05-23T04:37:02.818Z,19.18
2023-05-23T04:39:31.500Z,19.15
2023-05-23T04:42:18.857Z,19.11
2023-05-23T04:45:16.096Z,19.08
2023-05-23T04:48:17.519Z,19.08
2023-05-23T04:50:48.018Z,19.08
2023-05-23T04:53:15.784Z,19.08
2023-05-23T04:55:44.089Z,19.08
2023-05-23T04:58:15.621Z,19.08
2023-05-23T05:00:43.699Z,19.06
2023-05-23T05:03:12.346Z,19.03
2023-05-23T05:05:46.764Z,19.02
2023-05-23T05:08:15.310Z,19.01
2023-05-23T05:10:43.064Z,19.01
2023-05-23T05:13:12.359Z,19.06
2023-05-23T05:15:48.254Z,19.16
2023-05-23T05:18:17.043Z,19.24
2023-05-23T05:20:46.456Z,19.31
2023-05-23T05:23:16.342Z,19.37
2023-05-23T05:25:44.037Z,19.41
2023-05-23T05:28:12.353Z,19.41
2023-05-23T05:30:46.863Z,19.40
2023-05-23T05:33:15.316Z,19.39
2023-05-23T05:35:43.551Z,19.36
2023-05-23T05:38:11.379Z,19.40
2023-05-23T05:40:40.621Z,19.36
2023-05-23T05:43:10.298Z,19.25
2023-05-23T05:45:38.178Z,19.10
2023-05-23T05:48:06.500Z,19.02
2023-05-23T05:50:40.822Z,18.97
2023-05-23T05:53:08.941Z,18.90
2023-05-23T05:55:36.612Z,18.82
2023-05-23T05:58:04.660Z,18.72
2023-05-23T06:00:43.901Z,18.65
2023-05-23T06:03:12.949Z,18.60
2023-05-23T06:05:48.967Z,18.57
2023-05-23T06:08:16.612Z,18.54
2023-05-23T06:10:44.302Z,18.53
2023-05-23T06:13:12.048Z,18.55
2023-05-23T06:15:41.243Z,18.59
2023-05-23T06:18:08.987Z,18.62
2023-05-23T06:20:37.042Z,18.63
2023-05-23T06:23:09.057Z,18.62
2023-05-23T06:25:36.763Z,18.65
2023-05-23T06:28:04.398Z,18.72
2023-05-23T06:30:32.401Z,18.82
2023-05-23T06:33:00.144Z,18.93
2023-05-23T06:35:27.786Z,19.02
2023-05-23T06:37:55.386Z,19.10
2023-05-23T06:40:23.070Z,19.20
2023-05-23T06:42:51.053Z,19.29
2023-05-23T06:45:38.598Z,19.37
2023-05-23T06:48:06.514Z,19.44
2023-05-23T06:50:36.008Z,19.49
2023-05-23T06:53:03.816Z,19.49
2023-05-23T06:55:34.008Z,19.45
2023-05-23T06:58:04.227Z,19.39
2023-05-23T07:00:32.190Z,19.34
2023-05-23T07:03:14.357Z,19.28
2023-05-23T07:05:42.132Z,19.28
2023-05-23T07:08:13.478Z,19.32
2023-05-23T07:10:44.224Z,19.42
2023-05-23T07:13:28.681Z,19.61
2023-05-23T07:15:57.058Z,19.76
2023-05-23T07:18:25.038Z,19.84
2023-05-23T07:20:52.737Z,19.90
2023-05-23T07:23:23.912Z,19.96
2023-05-23T07:26:01.994Z,20.03
2023-05-23T07:28:47.929Z,20.11
2023-05-23T07:31:15.556Z,20.16
2023-05-23T07:33:43.422Z,20.17
2023-05-23T07:36:12.250Z,20.18
2023-05-23T07:38:39.960Z,20.19
2023-05-23T07:41:12.121Z,20.26
2023-05-23T07:43:41.006Z,20.36
2023-05-23T07:46:09.103Z,20.51
2023-05-23T07:48:37.130Z,20.62
2023-05-23T07:51:05.031Z,20.73
2023-05-23T07:53:32.688Z,20.84
2023-05-23T07:56:01.259Z,20.95
2023-05-23T07:58:31.995Z,21.04
2023-05-23T08:00:59.764Z,21.04
2023-05-23T08:03:46.344Z,21.03
2023-05-23T08:06:19.792Z,20.98
2023-05-23T08:08:47.606Z,20.92
2023-05-23T08:11:15.782Z,20.85
2023-05-23T08:13:46.770Z,20.84
2023-05-23T08:16:43.871Z,20.89
2023-05-23T08:19:15.972Z,20.89
2023-05-23T08:21:44.848Z,20.89
2023-05-23T08:24:14.909Z,20.86
2023-05-23T08:26:43.862Z,20.80
2023-05-23T08:29:13.018Z,20.78
2023-05-23T08:31:41.705Z,20.81
2023-05-23T08:34:09.623Z,20.83
2023-05-23T08:36:40.194Z,20.87
2023-05-23T08:39:11.777Z,20.87
2023-05-23T08:41:50.064Z,20.86
2023-05-23T08:44:17.925Z,20.94
2023-05-23T08:46:52.704Z,21.17
2023-05-23T12:46:25.692Z,23.73
2023-05-23T12:48:54.533Z,23.80
2023-05-23T12:51:22.241Z,23.72
2023-05-23T12:53:49.937Z,23.64
2023-05-23T12:56:18.016Z,23.60
2023-05-23T12:58:45.747Z,23.63
2023-05-23T13:01:13.406Z,23.64
2023-05-23T13:06:31.637Z,23.69
2023-05-23T13:08:59.330Z,23.65
2023-05-23T13:11:27.298Z,23.54
2023-05-23T13:13:55.077Z,23.39
2023-05-23T13:16:22.946Z,23.21
2023-05-23T13:18:50.923Z,23.08
2023-05-23T13:21:18.668Z,22.94
2023-05-23T13:23:46.355Z,22.79
2023-05-23T13:26:14.788Z,22.68
2023-05-23T13:28:42.464Z,22.58
2023-05-23T13:31:10.313Z,22.50
2023-05-23T13:33:38.456Z,22.43
2023-05-23T13:36:06.372Z,22.37
2023-05-23T13:38:34.029Z,22.34
2023-05-23T13:41:01.863Z,22.32
2023-05-23T13:43:29.544Z,22.30
2023-05-23T13:45:57.276Z,22.30
2023-05-23T13:48:24.975Z,22.32
2023-05-23T13:50:52.759Z,22.35
2023-05-23T13:53:21.848Z,22.37
2023-05-23T13:55:50.030Z,22.35
2023-05-23T13:58:17.821Z,22.32
2023-05-23T14:00:45.547Z,22.29
2023-05-23T14:03:13.318Z,22.26
2023-05-23T14:05:41.499Z,22.25
2023-05-23T14:08:09.286Z,22.25
2023-05-23T14:10:36.917Z,22.28
2023-05-23T14:13:06.501Z,22.31
2023-05-23T14:15:35.010Z,22.32
2023-05-23T14:18:29.117Z,22.33
2023-05-23T14:20:56.699Z,22.36
2023-05-23T14:23:24.313Z,22.37
2023-05-23T14:25:52.267Z,22.38
2023-05-23T14:28:20.075Z,22.36
2023-05-23T14:30:47.659Z,22.36
2023-05-23T14:33:15.768Z,22.35
2023-05-23T14:35:43.733Z,22.34
2023-05-23T14:38:11.696Z,22.33
2023-05-23T14:40:39.323Z,22.32
2023-05-23T14:43:07.207Z,22.31
2023-05-23T14:45:34.942Z,22.31
2023-05-23T14:48:02.757Z,22.31
2023-05-23T14:50:30.479Z,22.28
2023-05-23T14:52:59.927Z,22.25
2023-05-23T14:55:27.682Z,22.16
2023-05-23T14:57:55.338Z,22.06
2023-05-23T15:00:23.121Z,22.02
2023-05-23T15:03:25.717Z,22.00
2023-05-23T15:05:55.822Z,21.89
2023-05-23T15:08:23.637Z,21.71
2023-05-23T15:10:51.391Z,21.53
2023-05-23T15:13:19.191Z,21.38
2023-05-23T15:15:47.918Z,21.29
2023-05-23T15:18:27.850Z,21.24
2023-05-23T15:20:59.720Z,21.23
2023-05-23T15:23:27.329Z,21.20
2023-05-23T15:25:55.139Z,21.14
2023-05-23T15:28:23.084Z,21.02
2023-05-23T15:30:51.239Z,20.91
2023-05-23T15:33:19.012Z,20.81
2023-05-23T15:35:46.688Z,20.71
2023-05-23T15:38:15.514Z,20.63
2023-05-23T15:40:44.416Z,20.60
2023-05-23T15:43:12.272Z,20.58
2023-05-23T15:45:39.855Z,20.58
2023-05-23T15:48:07.583Z,20.57
2023-05-23T15:50:35.325Z,20.55
2023-05-23T15:53:03.011Z,20.52
2023-05-23T15:55:31.264Z,20.47
2023-05-23T15:57:58.847Z,20.40
2023-05-23T16:00:26.509Z,20.38
2023-05-23T16:02:54.300Z,20.35
2023-05-23T16:05:22.032Z,20.30
2023-05-23T16:07:50.372Z,20.30
2023-05-23T16:10:18.117Z,20.31
2023-05-23T16:12:46.597Z,20.31
2023-05-23T16:15:14.222Z,20.32
2023-05-23T16:17:41.837Z,20.32
2023-05-23T16:20:10.110Z,20.27
2023-05-23T16:22:37.765Z,20.17
2023-05-23T16:25:06.992Z,20.07
2023-05-23T16:27:35.095Z,20.00
2023-05-23T16:30:02.974Z,19.96
2023-05-23T16:32:30.707Z,19.97
2023-05-23T16:34:58.336Z,20.01
2023-05-23T16:37:25.946Z,20.05
2023-05-23T16:39:53.505Z,20.08
2023-05-23T16:42:21.280Z,20.10
2023-05-23T16:44:49.007Z,20.12
2023-05-23T16:47:17.233Z,20.11
2023-05-23T16:49:45.046Z,20.10
2023-05-23T16:52:12.817Z,20.07
2023-05-23T16:54:40.399Z,20.04
2023-05-23T16:57:08.015Z,20.01
2023-05-23T16:59:35.640Z,19.98
2023-05-23T17:02:03.553Z,19.96
2023-05-23T17:04:31.110Z,19.95
2023-05-23T17:06:59.090Z,19.93
2023-05-23T17:09:26.718Z,19.92
2023-05-23T17:11:54.362Z,19.91
2023-05-23T17:14:22.391Z,19.92
2023-05-23T17:16:50.856Z,19.91
2023-05-23T17:19:18.619Z,19.89
2023-05-23T17:21:46.283Z,19.88
2023-05-23T17:24:13.870Z,19.86
2023-05-23T17:26:46.706Z,19.85
2023-05-23T17:29:23.704Z,19.83
2023-05-23T17:31:55.634Z,19.72
2023-05-23T17:34:33.232Z,19.59
2023-05-23T17:37:01.110Z,19.55
2023-05-23T17:39:28.682Z,19.54
2023-05-23T17:41:56.420Z,19.49
2023-05-23T17:44:24.034Z,19.46
2023-05-23T17:47:02.452Z,19.44
2023-05-23T17:49:30.116Z,19.41
2023-05-23T17:51:58.037Z,19.36
2023-05-23T17:54:25.684Z,19.28
2023-05-23T17:56:54.104Z,19.22
2023-05-23T17:59:22.109Z,19.17
2023-05-23T18:01:49.732Z,19.10
2023-05-23T18:04:17.529Z,19.03
2023-05-23T18:06:45.292Z,19.00
2023-05-23T18:09:12.900Z,18.93
2023-05-23T18:11:40.926Z,18.87
2023-05-23T18:14:08.896Z,18.86
2023-05-23T18:16:36.890Z,18.84
2023-05-23T18:19:05.605Z,18.77
2023-05-23T18:21:34.928Z,18.71
2023-05-23T18:24:04.219Z,18.67
2023-05-23T18:26:32.142Z,18.62
2023-05-23T18:29:01.468Z,18.56
2023-05-23T18:31:29.085Z,18.50
2023-05-23T18:33:56.844Z,18.49
2023-05-23T18:36:24.449Z,18.50
2023-05-23T18:38:52.259Z,18.51
2023-05-23T18:41:19.881Z,18.51
2023-05-23T18:43:48.826Z,18.50
2023-05-23T18:46:16.707Z,18.51
2023-05-23T18:48:44.364Z,18.51
2023-05-23T18:51:12.689Z,18.51
2023-05-23T18:53:42.444Z,18.52
2023-05-23T18:56:10.887Z,18.52
2023-05-23T18:58:38.635Z,18.53
2023-05-23T19:01:07.252Z,18.53
2023-05-23T19:03:37.391Z,18.55
2023-05-23T19:06:06.110Z,18.56
2023-05-23T19:08:34.134Z,18.49
2023-05-23T19:11:01.910Z,18.44
2023-05-23T19:13:29.541Z,18.41
2023-05-23T19:15:57.165Z,18.41
2023-05-23T19:18:24.845Z,18.43
2023-05-23T19:20:52.540Z,18.47
2023-05-23T19:23:20.835Z,18.49
2023-05-23T19:25:48.551Z,18.51
2023-05-23T19:28:16.350Z,18.53
2023-05-23T19:30:44.780Z,18.55
2023-05-23T19:33:12.602Z,18.53
2023-05-23T19:35:40.268Z,18.54
2023-05-23T19:38:08.431Z,18.55
2023-05-23T19:40:36.159Z,18.57
2023-05-23T19:43:03.837Z,18.61
2023-05-23T19:45:31.913Z,18.65
2023-05-23T19:47:59.546Z,18.68
2023-05-23T19:50:27.344Z,18.72
2023-05-23T19:52:54.981Z,18.75
2023-05-23T19:55:22.713Z,18.77
2023-05-23T19:57:51.569Z,18.76
2023-05-23T20:00:19.394Z,18.75
2023-05-23T20:02:47.940Z,18.74
2023-05-23T20:05:15.602Z,18.73
2023-05-23T20:07:43.215Z,18.71
2023-05-23T20:10:11.532Z,18.70
2023-05-23T20:12:39.489Z,18.68
2023-05-23T20:15:07.804Z,18.65
2023-05-23T20:17:36.057Z,18.59
2023-05-23T20:20:05.008Z,18.53
2023-05-23T20:22:32.695Z,18.48
2023-05-23T20:25:00.283Z,18.43
2023-05-23T20:27:27.900Z,18.40
2023-05-23T20:29:55.564Z,18.39
2023-05-23T20:32:23.249Z,18.39
2023-05-23T20:34:51.174Z,18.40
2023-05-23T20:37:19.210Z,18.41
2023-05-23T20:39:48.520Z,18.42
2023-05-23T20:42:16.616Z,18.44
2023-05-23T20:44:45.043Z,18.45
2023-05-23T20:47:13.594Z,18.47
2023-05-23T20:49:42.513Z,18.47
2023-05-23T20:52:10.669Z,18.48
2023-05-23T20:54:38.376Z,18.48
2023-05-23T20:57:06.152Z,18.48
2023-05-23T20:59:33.727Z,18.49
2023-05-23T21:02:01.481Z,18.48
2023-05-23T21:04:29.143Z,18.44
2023-05-23T21:06:56.967Z,18.40
2023-05-23T21:09:24.685Z,18.36
2023-05-23T21:11:52.463Z,18.30
2023-05-23T21:14:20.027Z,18.23
2023-05-23T21:16:47.676Z,18.15
2023-05-23T21:19:15.359Z,18.09
2023-05-23T21:21:43.038Z,18.04
2023-05-23T21:24:10.760Z,17.97
2023-05-23T21:26:38.344Z,17.92
2023-05-23T21:29:06.075Z,17.87
2023-05-23T21:31:41.587Z,17.79
2023-05-23T21:34:22.227Z,17.71
2023-05-23T21:36:51.522Z,17.64
2023-05-23T21:39:19.786Z,17.57
2023-05-23T21:41:47.738Z,17.53
2023-05-23T21:44:17.762Z,17.51
2023-05-23T21:46:45.664Z,17.51
2023-05-23T21:49:14.331Z,17.52
2023-05-23T21:51:42.520Z,17.52
2023-05-23T21:54:10.141Z,17.50
2023-05-23T21:56:37.721Z,17.47
2023-05-23T21:59:05.304Z,17.42
2023-05-23T22:01:33.046Z,17.38
2023-05-23T22:04:01.391Z,17.37
2023-05-23T22:06:29.210Z,17.36
2023-05-23T22:08:56.836Z,17.35
2023-05-23T22:11:24.600Z,17.35
2023-05-23T22:13:52.219Z,17.34
2023-05-23T22:16:19.873Z,17.31
2023-05-23T22:18:51.861Z,17.28
2023-05-23T22:21:19.904Z,17.24
2023-05-23T22:23:47.617Z,17.19
2023-05-23T22:26:15.190Z,17.14
2023-05-23T22:28:42.928Z,17.09
2023-05-23T22:31:12.941Z,17.05
2023-05-23T22:33:41.832Z,17.03
2023-05-23T22:36:10.644Z,16.99
2023-05-23T22:38:38.798Z,16.95
2023-05-23T22:41:06.495Z,16.90
2023-05-23T22:43:34.085Z,16.88
2023-05-23T22:46:01.723Z,16.88
2023-05-23T22:48:33.978Z,16.88
2023-05-23T22:51:02.990Z,16.87
2023-05-23T22:53:30.646Z,16.90
2023-05-23T22:55:58.359Z,16.91
2023-05-23T22:58:26.184Z,16.91
2023-05-23T23:00:53.768Z,16.92
2023-05-23T23:03:21.568Z,16.94
2023-05-23T23:05:49.228Z,16.96
2023-05-23T23:08:16.891Z,16.98
2023-05-23T23:10:44.741Z,16.99
2023-05-23T23:13:14.337Z,17.01
2023-05-23T23:15:43.222Z,17.02
2023-05-23T23:18:13.784Z,17.02
2023-05-23T23:20:41.862Z,17.01
2023-05-23T23:23:09.721Z,17.00
2023-05-23T23:25:38.028Z,16.98
2023-05-23T23:28:06.396Z,16.96
2023-05-23T23:30:34.226Z,16.95
2023-05-23T23:33:02.066Z,16.94
2023-05-23T23:35:29.812Z,16.92
2023-05-23T23:37:57.402Z,16.90
2023-05-23T23:40:24.974Z,16.89
2023-05-23T23:42:52.534Z,16.88
2023-05-23T23:45:20.252Z,16.87
2023-05-23T23:47:47.895Z,16.86
2023-05-23T23:50:15.683Z,16.85
2023-05-23T23:52:43.584Z,16.82
2023-05-23T23:55:11.297Z,16.81
2023-05-23T23:57:38.940Z,16.80
